Time;durP1;ratioP1;P1;durP2;ratioP2;P2;SDS_P1;SDS_P2;PMS_P1;PMS_P2;Temp;Humidity;BMP_temperature;BMP_pressure;BME280_temperature;BME280_humidity;BME280_pressure;Samples;Min_cycle;Max_cycle;Signal;HPM_P1;HPM_P2
2022/06/15 00:01:55;;;;;;;;;;;;;;;10.07;76.18;100957.84;84807;1329;22786;-72
2022/06/15 00:04:00;;;;;;;;;;;;;;;10.05;76.42;100954.61;84810;1330;22576;-73
2022/06/15 00:06:05;;;;;;;;;;;;;;;10.03;76.34;100952.74;84804;1326;23964;-72
2022/06/15 00:08:09;;;;;;;;;;;;;;;10.00;76.51;100951.94;84782;1325;25961;-71
2022/06/15 00:10:12;;;;;;;;;;;;;;;9.97;76.58;100952.38;84821;1326;23970;-72
2022/06/15 00:12:15;;;;;;;;;;;;;;;9.94;76.64;100951.24;84784;1330;22657;-72
2022/06/15 00:14:20;;;;;;;;;;;;;;;9.90;76.79;100951.70;84819;1329;23477;-72
2022/06/15 00:16:24;;;;;;;;;;;;;;;9.86;76.90;100952.83;84792;1329;22652;-72
2022/06/15 00:18:28;;;;;;;;;;;;;;;9.81;77.01;100954.00;84791;1330;22607;-72
2022/06/15 00:20:31;;;;;;;;;;;;;;;9.80;77.41;100958.91;84831;1327;22575;-72
2022/06/15 00:22:34;;;;;;;;;;;;;;;9.77;77.54;100954.27;84806;1325;24135;-72
2022/06/15 00:24:38;;;;;;;;;;;;;;;9.77;77.88;100955.17;84806;1321;22621;-72
2022/06/15 00:26:41;;;;;;;;;;;;;;;9.76;77.92;100956.92;84815;1326;22644;-72
2022/06/15 00:28:45;;;;;;;;;;;;;;;9.75;78.15;100950.48;84790;1326;25447;-73
2022/06/15 00:30:50;;;;;;;;;;;;;;;9.76;78.48;100953.79;84808;1329;22625;-73
2022/06/15 00:32:53;;;;;;;;;;;;;;;9.77;78.63;100950.46;84789;1326;22874;-72
2022/06/15 00:34:56;;;;;;;;;;;;;;;9.78;78.92;100952.17;84830;1326;22580;-72
2022/06/15 00:37:01;;;;;;;;;;;;;;;9.79;79.08;100950.39;84817;1326;24365;-72
2022/06/15 00:39:04;;;;;;;;;;;;;;;9.81;79.25;100945.13;84811;1329;23085;-72
2022/06/15 00:41:10;;;;;;;;;;;;;;;9.83;79.37;100945.92;84794;1328;22599;-72
2022/06/15 00:43:13;;;;;;;;;;;;;;;9.85;79.40;100945.52;84757;1330;22622;-72
2022/06/15 00:45:17;;;;;;;;;;;;;;;9.85;79.48;100946.94;84805;1328;23891;-72
2022/06/15 00:47:21;;;;;;;;;;;;;;;9.84;79.45;100946.77;84803;1330;22605;-72
2022/06/15 00:49:27;;;;;;;;;;;;;;;9.83;79.45;100946.29;84827;1323;22608;-72
2022/06/15 00:51:30;;;;;;;;;;;;;;;9.82;79.56;100948.76;84796;1326;22626;-72
2022/06/15 00:53:33;;;;;;;;;;;;;;;9.80;79.53;100945.50;84819;1327;25330;-72
2022/06/15 00:55:37;;;;;;;;;;;;;;;9.78;79.42;100945.52;84800;1328;23065;-72
2022/06/15 00:57:40;;;;;;;;;;;;;;;9.77;79.37;100945.73;84822;1322;22592;-73
2022/06/15 00:59:46;;;;;;;;;;;;;;;9.76;79.53;100948.56;84801;1326;22577;-72
2022/06/15 01:01:50;;;;;;;;;;;;;;;9.74;79.60;100948.08;84773;1326;22559;-72
2022/06/15 01:03:53;;;;;;;;;;;;;;;9.73;79.67;100947.05;84807;1322;24204;-73
2022/06/15 01:05:59;;;;;;;;;;;;;;;9.72;79.65;100946.41;84819;1326;23980;-72
2022/06/15 01:08:19;;;;;;;;;;;;;;;9.69;79.79;100946.63;84791;1328;22574;-72
2022/06/15 01:10:27;;;;;;;;;;;;;;;9.68;79.75;100947.03;84798;1328;22870;-72
2022/06/15 01:12:33;;;;;;;;;;;;;;;9.66;79.85;100948.30;84802;1326;24251;-71
2022/06/15 01:14:55;;;;;;;;;;;;;;;9.64;79.80;100946.95;84801;1324;22694;-73
2022/06/15 01:17:04;;;;;;;;;;;;;;;9.61;79.88;100951.73;84823;1328;22532;-72
2022/06/15 01:19:18;;;;;;;;;;;;;;;9.59;79.84;100950.38;84811;1326;24108;-72
2022/06/15 01:21:25;;;;;;;;;;;;;;;9.56;79.79;100954.45;84780;1330;22710;-73
2022/06/15 01:24:07;;;;;;;;;;;;;;;9.53;79.91;100956.42;84816;1325;25424;-72
2022/06/15 01:26:36;;;;;;;;;;;;;;;9.52;80.00;100954.39;84815;1329;22556;-72
2022/06/15 01:28:43;;;;;;;;;;;;;;;9.51;80.07;100954.59;84755;1330;22656;-72
2022/06/15 01:30:48;;;;;;;;;;;;;;;9.48;80.12;100949.94;84791;1327;22580;-72
2022/06/15 01:33:00;;;;;;;;;;;;;;;9.46;80.25;100952.61;84801;1326;22664;-72
2022/06/15 01:35:06;;;;;;;;;;;;;;;9.45;80.31;100950.20;84831;1325;24230;-73
2022/06/15 01:37:17;;;;;;;;;;;;;;;9.43;80.25;100946.60;84836;1326;22600;-73
2022/06/15 01:39:22;;;;;;;;;;;;;;;9.41;80.24;100946.29;84830;1326;22631;-73
2022/06/15 01:41:28;;;;;;;;;;;;;;;9.39;80.25;100945.45;84818;1326;24242;-72
2022/06/15 01:43:35;;;;;;;;;;;;;;;9.39;80.50;100944.08;84813;1330;25280;-71
2022/06/15 01:45:39;;;;;;;;;;;;;;;9.40;80.57;100944.23;84790;1330;25293;-70
2022/06/15 01:47:42;;;;;;;;;;;;;;;9.38;80.59;100947.93;84799;1330;22597;-72
2022/06/15 01:49:46;;;;;;;;;;;;;;;9.36;80.53;100948.15;84815;1329;22565;-72
2022/06/15 01:51:50;;;;;;;;;;;;;;;9.35;80.59;100949.56;84803;1329;22589;-73
2022/06/15 01:53:55;;;;;;;;;;;;;;;9.33;80.52;100949.10;84807;1329;22569;-72
2022/06/15 01:56:00;;;;;;;;;;;;;;;9.32;80.56;100949.67;84828;1326;23951;-72
2022/06/15 01:58:07;;;;;;;;;;;;;;;9.30;80.57;100948.29;84798;1326;23948;-72
2022/06/15 02:00:13;;;;;;;;;;;;;;;9.29;80.44;100951.27;84797;1326;22879;-72
2022/06/15 02:02:19;;;;;;;;;;;;;;;9.26;80.45;100950.81;84799;1326;25240;-72
2022/06/15 02:04:28;;;;;;;;;;;;;;;9.24;80.53;100952.09;84789;1327;22593;-72
2022/06/15 02:06:36;;;;;;;;;;;;;;;9.21;80.48;100952.49;84792;1327;25429;-72
2022/06/15 02:08:41;;;;;;;;;;;;;;;9.18;80.54;100952.41;84678;1331;22696;-72
2022/06/15 02:10:49;;;;;;;;;;;;;;;9.16;80.55;100953.33;84849;1329;22590;-72
2022/06/15 02:12:55;;;;;;;;;;;;;;;9.14;80.60;100952.51;84811;1329;24264;-72
2022/06/15 02:14:59;;;;;;;;;;;;;;;9.10;80.67;100951.00;84787;1326;22821;-72
2022/06/15 02:17:05;;;;;;;;;;;;;;;9.09;80.78;100951.23;84788;1326;25425;-72
2022/06/15 02:19:11;;;;;;;;;;;;;;;9.07;80.66;100952.48;84802;1326;22696;-72
2022/06/15 02:21:16;;;;;;;;;;;;;;;9.05;80.85;100950.09;84811;1330;22735;-73
2022/06/15 02:23:20;;;;;;;;;;;;;;;9.04;80.94;100949.77;84812;1327;22940;-72
2022/06/15 02:25:24;;;;;;;;;;;;;;;9.04;80.90;100951.67;84812;1327;22947;-72
2022/06/15 02:27:29;;;;;;;;;;;;;;;9.03;81.09;100953.27;84800;1326;22573;-71
2022/06/15 02:29:34;;;;;;;;;;;;;;;9.02;81.06;100954.85;84788;1327;22579;-71
2022/06/15 02:31:38;;;;;;;;;;;;;;;9.01;81.05;100952.96;84795;1327;24283;-72
2022/06/15 02:33:46;;;;;;;;;;;;;;;9.01;81.02;100954.34;84824;1326;23917;-72
2022/06/15 02:35:49;;;;;;;;;;;;;;;9.00;81.16;100955.74;84801;1325;24296;-72
2022/06/15 02:37:54;;;;;;;;;;;;;;;8.99;81.03;100955.77;84782;1327;25404;-72
2022/06/15 02:39:57;;;;;;;;;;;;;;;8.98;81.19;100955.27;84821;1327;22524;-72
2022/06/15 02:42:03;;;;;;;;;;;;;;;9.01;81.19;100959.91;84787;1328;23964;-71
2022/06/15 02:44:07;;;;;;;;;;;;;;;9.03;81.42;100959.53;84801;1329;22564;-73
2022/06/15 02:46:11;;;;;;;;;;;;;;;9.07;81.83;100964.67;84802;1326;25282;-71
2022/06/15 02:48:14;;;;;;;;;;;;;;;9.14;82.09;100965.55;84791;1328;22567;-72
2022/06/15 02:50:20;;;;;;;;;;;;;;;9.23;82.44;100966.90;84807;1326;24187;-72
2022/06/15 02:52:25;;;;;;;;;;;;;;;9.34;82.69;100965.61;84833;1326;22679;-73
2022/06/15 02:54:30;;;;;;;;;;;;;;;9.44;82.86;100966.23;84786;1326;25422;-73
2022/06/15 02:56:33;;;;;;;;;;;;;;;9.55;82.87;100970.52;84809;1326;22633;-72
2022/06/15 02:58:39;;;;;;;;;;;;;;;9.64;82.94;100969.08;84807;1329;25506;-72
2022/06/15 03:00:42;;;;;;;;;;;;;;;9.74;82.86;100965.70;84827;1326;22585;-72
2022/06/15 03:02:45;;;;;;;;;;;;;;;9.84;83.14;100968.23;84790;1326;24482;-71
2022/06/15 03:04:49;;;;;;;;;;;;;;;9.95;83.06;100964.45;84779;1327;22566;-72
2022/06/15 03:06:52;;;;;;;;;;;;;;;10.06;83.02;100972.17;84806;1327;25857;-72
2022/06/15 03:08:55;;;;;;;;;;;;;;;10.18;82.90;100975.19;84811;1330;24257;-72
2022/06/15 03:10:59;;;;;;;;;;;;;;;10.33;83.06;100973.77;84799;1328;25410;-71
2022/06/15 03:13:02;;;;;;;;;;;;;;;10.50;83.09;100972.77;84708;1327;22629;-72
2022/06/15 03:15:07;;;;;;;;;;;;;;;10.66;83.25;100976.67;84784;1321;23774;-72
2022/06/15 03:17:11;;;;;;;;;;;;;;;10.82;82.80;100976.56;84799;1326;22858;-72
2022/06/15 03:19:14;;;;;;;;;;;;;;;10.97;82.80;100973.48;84785;1322;23050;-71
2022/06/15 03:21:18;;;;;;;;;;;;;;;11.13;82.48;100975.11;84789;1330;25247;-72
2022/06/15 03:23:21;;;;;;;;;;;;;;;11.29;82.22;100976.02;84802;1330;22570;-72
2022/06/15 03:25:24;;;;;;;;;;;;;;;11.47;82.10;100974.39;84780;1326;22577;-72
2022/06/15 03:27:28;;;;;;;;;;;;;;;11.68;81.80;100980.34;84784;1326;22715;-72
2022/06/15 03:29:31;;;;;;;;;;;;;;;12.13;81.92;100975.17;84803;1327;25288;-72
2022/06/15 03:31:34;;;;;;;;;;;;;;;12.90;82.17;100970.09;84803;1326;22579;-73
2022/06/15 03:33:38;;;;;;;;;;;;;;;13.70;81.02;100971.15;84792;1324;22714;-72
2022/06/15 03:35:41;;;;;;;;;;;;;;;14.52;79.35;100971.67;84783;1323;22565;-72
2022/06/15 03:37:45;;;;;;;;;;;;;;;15.28;77.56;100964.98;84782;1328;22517;-72
2022/06/15 03:39:48;;;;;;;;;;;;;;;15.96;75.78;100966.77;84796;1327;22677;-72
2022/06/15 03:41:52;;;;;;;;;;;;;;;16.48;73.55;100960.88;84773;1324;22581;-73
2022/06/15 03:43:55;;;;;;;;;;;;;;;16.75;71.56;100965.98;84795;1326;23763;-72
2022/06/15 03:45:59;;;;;;;;;;;;;;;17.06;70.69;100967.26;84767;1330;23982;-73
2022/06/15 03:48:02;;;;;;;;;;;;;;;17.67;69.71;100962.61;84793;1330;24430;-73
2022/06/15 03:50:07;;;;;;;;;;;;;;;17.99;67.65;100966.55;84782;1330;22574;-73
2022/06/15 03:52:11;;;;;;;;;;;;;;;18.12;65.62;100964.21;84801;1327;22604;-73
2022/06/15 03:54:14;;;;;;;;;;;;;;;18.30;65.40;100965.93;84770;1327;22619;-73
2022/06/15 03:56:17;;;;;;;;;;;;;;;18.78;65.44;100962.09;84780;1323;22610;-72
2022/06/15 03:58:21;;;;;;;;;;;;;;;19.44;63.39;100959.42;84493;1330;425709;-72
2022/06/15 04:00:25;;;;;;;;;;;;;;;19.92;61.27;100961.04;84773;1326;22589;-73
2022/06/15 04:02:29;;;;;;;;;;;;;;;20.20;59.14;100957.36;84761;1328;22759;-73
2022/06/15 04:04:32;;;;;;;;;;;;;;;20.40;57.97;100953.88;84781;1326;22602;-72
2022/06/15 04:06:35;;;;;;;;;;;;;;;20.73;56.82;100956.66;84817;1328;24105;-72
2022/06/15 04:08:39;;;;;;;;;;;;;;;21.03;55.48;100950.27;84786;1326;25423;-72
2022/06/15 04:10:42;;;;;;;;;;;;;;;21.39;55.01;100952.30;84774;1327;22844;-72
2022/06/15 04:12:45;;;;;;;;;;;;;;;21.94;53.41;100956.30;84782;1323;22648;-72
2022/06/15 04:14:49;;;;;;;;;;;;;;;22.39;51.50;100952.31;84764;1327;22609;-73
2022/06/15 04:16:53;;;;;;;;;;;;;;;22.71;50.79;100949.94;84779;1330;22641;-73
2022/06/15 04:18:56;;;;;;;;;;;;;;;23.12;49.32;100944.91;84750;1328;22587;-72
2022/06/15 04:21:00;;;;;;;;;;;;;;;23.67;48.11;100945.34;84759;1327;23911;-72
2022/06/15 04:23:05;;;;;;;;;;;;;;;24.14;46.39;100942.27;84744;1327;22608;-73
2022/06/15 04:25:10;;;;;;;;;;;;;;;24.67;45.27;100947.15;84716;1328;22684;-73
2022/06/15 04:27:14;;;;;;;;;;;;;;;24.94;43.90;100949.89;84777;1326;22593;-73
2022/06/15 04:29:18;;;;;;;;;;;;;;;25.20;43.12;100952.56;84741;1326;22678;-72
2022/06/15 04:31:21;;;;;;;;;;;;;;;25.51;42.02;100952.59;84757;1327;25240;-73
2022/06/15 04:33:28;;;;;;;;;;;;;;;25.72;41.68;100951.58;84757;1327;25420;-73
2022/06/15 04:35:32;;;;;;;;;;;;;;;25.94;40.94;100951.67;84770;1330;22715;-73
2022/06/15 04:37:37;;;;;;;;;;;;;;;26.22;40.88;100953.52;84745;1329;23955;-73
2022/06/15 04:39:40;;;;;;;;;;;;;;;26.40;40.13;100958.45;84756;1326;22588;-73
2022/06/15 04:41:44;;;;;;;;;;;;;;;26.29;39.71;100952.29;84746;1327;22822;-73
2022/06/15 04:43:47;;;;;;;;;;;;;;;25.86;39.65;100951.39;84753;1330;24250;-73
2022/06/15 04:45:50;;;;;;;;;;;;;;;25.57;39.96;100948.65;84742;1326;22629;-74
2022/06/15 04:47:54;;;;;;;;;;;;;;;25.67;40.36;100947.03;84719;1327;22568;-73
2022/06/15 04:49:57;;;;;;;;;;;;;;;25.97;40.11;100949.08;84733;1327;22792;-73
2022/06/15 04:52:00;;;;;;;;;;;;;;;26.36;39.96;100954.55;84737;1326;25449;-73
2022/06/15 04:54:09;;;;;;;;;;;;;;;26.93;39.39;100951.90;84737;1329;22603;-73
2022/06/15 04:56:13;;;;;;;;;;;;;;;27.35;38.44;100948.98;84733;1327;22604;-73
2022/06/15 04:58:16;;;;;;;;;;;;;;;27.82;37.52;100947.15;84734;1327;22581;-73
2022/06/15 05:00:21;;;;;;;;;;;;;;;28.19;36.84;100947.52;84721;1324;22661;-73
2022/06/15 05:02:24;;;;;;;;;;;;;;;28.61;35.92;100941.83;84752;1326;22671;-73
2022/06/15 05:04:27;;;;;;;;;;;;;;;29.10;35.10;100942.22;84735;1330;22593;-73
2022/06/15 05:06:32;;;;;;;;;;;;;;;29.42;34.21;100943.80;84743;1326;22731;-73
2022/06/15 05:08:36;;;;;;;;;;;;;;;29.56;34.11;100944.44;84726;1329;22883;-73
2022/06/15 05:10:39;;;;;;;;;;;;;;;29.82;33.37;100948.63;84740;1327;22677;-73
2022/06/15 05:12:42;;;;;;;;;;;;;;;30.04;33.19;100951.73;84754;1326;22792;-74
2022/06/15 05:14:47;;;;;;;;;;;;;;;30.24;32.68;100953.63;84791;1330;25453;-74
2022/06/15 05:16:50;;;;;;;;;;;;;;;30.48;32.12;100959.42;84787;1326;22603;-74
2022/06/15 05:18:54;;;;;;;;;;;;;;;30.66;31.17;100961.86;84804;1330;22652;-73
2022/06/15 05:20:57;;;;;;;;;;;;;;;30.71;31.14;100956.60;84798;1326;23766;-73
2022/06/15 05:23:01;;;;;;;;;;;;;;;30.91;30.87;100954.11;84824;1330;26007;-73
2022/06/15 05:25:07;;;;;;;;;;;;;;;31.14;30.74;100954.23;84792;1324;22662;-73
2022/06/15 05:27:11;;;;;;;;;;;;;;;31.38;30.26;100955.77;84794;1326;24298;-73
2022/06/15 05:29:14;;;;;;;;;;;;;;;31.45;29.69;100951.64;84801;1327;22598;-73
2022/06/15 05:31:20;;;;;;;;;;;;;;;31.51;29.44;100951.80;84786;1326;22594;-73
2022/06/15 05:33:23;;;;;;;;;;;;;;;31.71;29.13;100951.06;84801;1326;22856;-73
2022/06/15 05:35:26;;;;;;;;;;;;;;;31.88;28.87;100949.80;84805;1327;22588;-74
2022/06/15 05:37:31;;;;;;;;;;;;;;;32.05;28.86;100951.02;84760;1326;25304;-74
2022/06/15 05:39:34;;;;;;;;;;;;;;;32.24;28.66;100952.21;84819;1326;22804;-74
2022/06/15 05:41:37;;;;;;;;;;;;;;;32.43;28.57;100953.36;84781;1326;22901;-74
2022/06/15 05:43:41;;;;;;;;;;;;;;;32.63;27.91;100954.64;84780;1326;22894;-74
2022/06/15 05:45:44;;;;;;;;;;;;;;;32.70;27.88;100958.31;84788;1326;22602;-74
2022/06/15 05:47:47;;;;;;;;;;;;;;;32.68;27.91;100956.38;84788;1326;24332;-74
2022/06/15 05:49:51;;;;;;;;;;;;;;;32.79;28.05;100957.14;84793;1327;25443;-74
2022/06/15 05:51:54;;;;;;;;;;;;;;;32.92;27.58;100956.43;84772;1326;22646;-73
2022/06/15 05:53:57;;;;;;;;;;;;;;;32.83;27.16;100953.14;84802;1326;23924;-74
2022/06/15 05:56:02;;;;;;;;;;;;;;;32.69;27.52;100956.30;84777;1327;22579;-74
2022/06/15 05:58:06;;;;;;;;;;;;;;;32.58;27.15;100956.39;84769;1326;22590;-73
2022/06/15 06:00:14;;;;;;;;;;;;;;;32.66;27.36;100956.50;84772;1326;22643;-73
2022/06/15 06:02:18;;;;;;;;;;;;;;;32.80;26.93;100952.15;84802;1327;22583;-74
2022/06/15 06:04:22;;;;;;;;;;;;;;;32.71;27.05;100952.91;84804;1326;24276;-75
2022/06/15 06:06:26;;;;;;;;;;;;;;;32.88;26.96;100951.76;84789;1327;22581;-75
2022/06/15 06:08:29;;;;;;;;;;;;;;;33.01;27.13;100955.64;84796;1330;22830;-74
2022/06/15 06:10:32;;;;;;;;;;;;;;;33.19;26.51;100962.56;84811;1324;22840;-74
2022/06/15 06:12:36;;;;;;;;;;;;;;;33.30;26.81;100961.20;84785;1327;22592;-74
2022/06/15 06:14:39;;;;;;;;;;;;;;;33.61;26.54;100959.67;84784;1326;22567;-74
2022/06/15 06:16:42;;;;;;;;;;;;;;;33.75;26.09;100960.17;84791;1324;22918;-74
2022/06/15 06:18:50;;;;;;;;;;;;;;;33.94;25.92;100962.80;84806;1327;22603;-74
2022/06/15 06:20:53;;;;;;;;;;;;;;;34.11;25.87;100960.31;84805;1324;22648;-74
2022/06/15 06:22:56;;;;;;;;;;;;;;;34.08;25.42;100960.14;84790;1326;22589;-75
2022/06/15 06:25:00;;;;;;;;;;;;;;;33.67;24.88;100960.09;84764;1323;22678;-75
2022/06/15 06:27:05;;;;;;;;;;;;;;;33.16;25.52;100959.31;84765;1326;23914;-75
2022/06/15 06:29:11;;;;;;;;;;;;;;;33.33;26.05;100960.25;84771;1329;22585;-75
2022/06/15 06:31:14;;;;;;;;;;;;;;;33.36;25.92;100953.85;84784;1326;25937;-75
2022/06/15 06:33:18;;;;;;;;;;;;;;;33.41;26.49;100957.83;84800;1325;22624;-75
2022/06/15 06:35:21;;;;;;;;;;;;;;;33.15;26.11;100959.84;84764;1326;22574;-75
2022/06/15 06:37:24;;;;;;;;;;;;;;;33.01;26.33;100958.98;84774;1326;22822;-75
2022/06/15 06:39:29;;;;;;;;;;;;;;;33.25;26.51;100959.03;84790;1325;22696;-75
2022/06/15 06:41:32;;;;;;;;;;;;;;;33.43;26.16;100958.65;84806;1327;22589;-75
2022/06/15 06:43:35;;;;;;;;;;;;;;;33.68;25.87;100959.33;84784;1321;24281;-75
2022/06/15 06:45:39;;;;;;;;;;;;;;;33.92;25.24;100960.41;84789;1326;22736;-75
2022/06/15 06:47:44;;;;;;;;;;;;;;;33.73;25.04;100957.89;84774;1326;24304;-75
2022/06/15 06:49:47;;;;;;;;;;;;;;;33.49;25.38;100959.34;84773;1326;24268;-74
2022/06/15 06:51:51;;;;;;;;;;;;;;;32.86;26.24;100964.27;84771;1326;24367;-74
2022/06/15 06:53:54;;;;;;;;;;;;;;;32.13;26.44;100965.68;84749;1326;24341;-74
2022/06/15 06:56:00;;;;;;;;;;;;;;;31.58;27.02;100963.45;84787;1329;22577;-74
2022/06/15 06:58:04;;;;;;;;;;;;;;;31.06;27.54;100963.53;84784;1327;22990;-74
2022/06/15 07:00:10;;;;;;;;;;;;;;;31.19;28.06;100965.55;84803;1326;22522;-74
2022/06/15 07:02:13;;;;;;;;;;;;;;;31.44;28.13;100965.69;84815;1326;22620;-74
2022/06/15 07:04:17;;;;;;;;;;;;;;;31.83;28.15;100964.15;84803;1327;22576;-74
2022/06/15 07:06:20;;;;;;;;;;;;;;;31.66;27.65;100965.04;84792;1327;22562;-74
2022/06/15 07:08:24;;;;;;;;;;;;;;;31.29;27.98;100964.59;84791;1326;22605;-74
2022/06/15 07:10:27;;;;;;;;;;;;;;;31.29;28.17;100971.18;84780;1326;22861;-74
2022/06/15 07:12:30;;;;;;;;;;;;;;;31.28;27.80;100971.16;84793;1324;22795;-74
2022/06/15 07:14:34;;;;;;;;;;;;;;;30.85;27.94;100971.65;84788;1327;24401;-74
2022/06/15 07:16:38;;;;;;;;;;;;;;;30.45;29.14;100973.59;84807;1325;22995;-75
2022/06/15 07:18:42;;;;;;;;;;;;;;;30.26;29.42;100964.79;84802;1330;23962;-75
2022/06/15 07:20:46;;;;;;;;;;;;;;;30.43;29.15;100966.23;84781;1330;22593;-74
2022/06/15 07:22:49;;;;;;;;;;;;;;;30.09;29.38;100961.46;84799;1330;24239;-74
2022/06/15 07:24:52;;;;;;;;;;;;;;;30.47;29.74;100963.10;84767;1326;22583;-74
2022/06/15 07:26:56;;;;;;;;;;;;;;;31.05;28.73;100959.95;84759;1324;22590;-74
2022/06/15 07:28:59;;;;;;;;;;;;;;;31.69;28.19;100956.81;84767;1326;22576;-74
2022/06/15 07:31:02;;;;;;;;;;;;;;;32.38;27.73;100953.14;84773;1326;22612;-74
2022/06/15 07:33:06;;;;;;;;;;;;;;;32.90;26.63;100952.58;84770;1326;22643;-74
2022/06/15 07:35:14;;;;;;;;;;;;;;;32.99;26.16;100954.86;84769;1330;23993;-74
2022/06/15 07:37:18;;;;;;;;;;;;;;;32.42;26.15;100959.78;84799;1327;24291;-74
2022/06/15 07:39:22;;;;;;;;;;;;;;;31.52;26.99;100962.16;84779;1326;22599;-74
2022/06/15 07:41:26;;;;;;;;;;;;;;;30.53;27.56;100966.40;84769;1326;22673;-73
2022/06/15 07:43:30;;;;;;;;;;;;;;;29.64;28.80;100964.20;84760;1330;22583;-75
2022/06/15 07:45:33;;;;;;;;;;;;;;;28.91;29.67;100962.69;84767;1328;25424;-75
2022/06/15 07:49:58;;;;;;;;;;;;;;;29.87;30.68;100958.80;84674;1329;26850;-75
2022/06/15 07:52:03;;;;;;;;;;;;;;;30.84;30.00;100961.29;84797;1326;25938;-75
2022/06/15 07:54:09;;;;;;;;;;;;;;;31.51;28.67;100956.57;84767;1328;24308;-75
2022/06/15 07:56:12;;;;;;;;;;;;;;;31.58;27.83;100954.60;84781;1327;22633;-75
2022/06/15 07:58:16;;;;;;;;;;;;;;;31.05;27.51;100958.85;84775;1326;22555;-75
2022/06/15 08:00:20;;;;;;;;;;;;;;;30.30;28.29;100962.67;84781;1329;25429;-74
2022/06/15 08:02:23;;;;;;;;;;;;;;;29.51;29.15;100957.92;84772;1330;22668;-74
2022/06/15 08:04:26;;;;;;;;;;;;;;;28.82;29.72;100961.01;84793;1327;22571;-74
2022/06/15 08:06:30;;;;;;;;;;;;;;;28.53;31.16;100962.41;84774;1327;22583;-74
2022/06/15 08:08:34;;;;;;;;;;;;;;;28.67;31.31;100962.21;84765;1330;22563;-74
2022/06/15 08:10:37;;;;;;;;;;;;;;;28.94;31.97;100957.25;84765;1327;25456;-74
2022/06/15 08:12:40;;;;;;;;;;;;;;;29.63;31.43;100956.48;84750;1324;22590;-74
2022/06/15 08:14:46;;;;;;;;;;;;;;;29.90;30.27;100958.36;84736;1324;22607;-74
2022/06/15 08:16:50;;;;;;;;;;;;;;;30.20;30.53;100959.11;84823;1326;22571;-75
2022/06/15 08:18:55;;;;;;;;;;;;;;;31.01;29.66;100953.01;84836;1328;22632;-75
2022/06/15 08:21:01;;;;;;;;;;;;;;;32.02;28.61;100948.74;84748;1324;22584;-75
2022/06/15 08:23:06;;;;;;;;;;;;;;;32.78;28.07;100945.02;84738;1324;22589;-75
2022/06/15 08:25:11;;;;;;;;;;;;;;;33.46;26.80;100946.57;84747;1327;22572;-75
2022/06/15 08:27:15;;;;;;;;;;;;;;;34.11;26.03;100947.98;84755;1327;24298;-75
2022/06/15 08:29:19;;;;;;;;;;;;;;;34.37;25.22;100951.42;84745;1325;23754;-75
2022/06/15 08:31:23;;;;;;;;;;;;;;;34.42;25.26;100950.27;84760;1328;22623;-75
2022/06/15 08:33:26;;;;;;;;;;;;;;;34.30;24.83;100946.61;84763;1327;22590;-75
2022/06/15 08:35:30;;;;;;;;;;;;;;;33.44;25.03;100946.46;84735;1329;22699;-75
2022/06/15 08:37:33;;;;;;;;;;;;;;;32.46;25.46;100953.30;84746;1326;22574;-75
2022/06/15 08:39:37;;;;;;;;;;;;;;;31.52;26.31;100956.03;84759;1327;24261;-73
2022/06/15 08:41:45;;;;;;;;;;;;;;;30.87;27.12;100955.91;84726;1325;23740;-74
2022/06/15 08:43:58;;;;;;;;;;;;;;;30.37;28.11;100957.84;84816;1326;22646;-74
2022/06/15 08:46:06;;;;;;;;;;;;;;;30.03;28.43;100954.67;84733;1328;22563;-74
2022/06/15 08:48:26;;;;;;;;;;;;;;;29.65;29.14;100954.42;84848;1323;22590;-75
2022/06/15 08:50:33;;;;;;;;;;;;;;;29.07;29.41;100958.00;84811;1322;24039;-74
2022/06/15 08:52:39;;;;;;;;;;;;;;;28.41;29.72;100962.64;84805;1326;22586;-74
2022/06/15 08:54:47;;;;;;;;;;;;;;;27.83;30.49;100964.95;84817;1327;22596;-74
2022/06/15 08:56:53;;;;;;;;;;;;;;;27.29;31.03;100966.44;84787;1326;24330;-74
2022/06/15 08:58:58;;;;;;;;;;;;;;;26.78;32.27;100964.22;84805;1326;23023;-74
2022/06/15 09:01:05;;;;;;;;;;;;;;;26.68;33.79;100965.07;84800;1326;22579;-74
2022/06/15 09:03:16;;;;;;;;;;;;;;;27.57;34.09;100959.52;84803;1326;24261;-74
2022/06/15 09:05:25;;;;;;;;;;;;;;;28.66;33.40;100953.38;84783;1326;23294;-75
2022/06/15 09:07:36;;;;;;;;;;;;;;;29.56;31.88;100955.92;84828;1326;22577;-75
2022/06/15 09:09:47;;;;;;;;;;;;;;;29.69;30.53;100961.23;84799;1326;22602;-75
2022/06/15 09:12:49;;;;;;;;;;;;;;;29.36;30.00;100964.38;84816;1324;22570;-75
2022/06/15 09:14:29;;;;;;;;;;;;;;;28.88;30.59;100966.66;84792;1326;24461;-74
2022/06/15 09:16:36;;;;;;;;;;;;;;;28.37;30.72;100970.02;84774;1326;23025;-74
2022/06/15 09:18:41;;;;;;;;;;;;;;;27.92;31.56;100974.30;84797;1328;25493;-74
2022/06/15 09:20:49;;;;;;;;;;;;;;;27.54;32.04;100972.59;84807;1323;22603;-73
2022/06/15 09:22:56;;;;;;;;;;;;;;;27.15;32.39;100978.88;84791;1328;22978;-75
2022/06/15 09:25:01;;;;;;;;;;;;;;;26.72;33.10;100976.32;84801;1326;22576;-74
2022/06/15 09:27:07;;;;;;;;;;;;;;;26.40;34.00;100979.70;84796;1329;22583;-74
2022/06/15 09:29:14;;;;;;;;;;;;;;;26.21;34.40;100975.61;84802;1326;22592;-74
2022/06/15 09:31:21;;;;;;;;;;;;;;;26.08;34.88;100974.88;84771;1326;24103;-74
2022/06/15 09:33:28;;;;;;;;;;;;;;;26.20;35.17;100972.48;84785;1326;22787;-74
2022/06/15 09:35:32;;;;;;;;;;;;;;;26.48;35.45;100973.01;84800;1326;23790;-74
2022/06/15 09:37:36;;;;;;;;;;;;;;;26.69;34.81;100967.77;84792;1329;25288;-74
2022/06/15 09:39:40;;;;;;;;;;;;;;;26.79;34.56;100964.48;84802;1325;24248;-73
2022/06/15 09:41:46;;;;;;;;;;;;;;;27.02;34.98;100965.72;84788;1326;23965;-74
2022/06/15 09:43:57;;;;;;;;;;;;;;;27.43;34.21;100958.59;84832;1326;22517;-74
2022/06/15 09:46:06;;;;;;;;;;;;;;;27.84;34.13;100956.46;84809;1324;22615;-74
2022/06/15 09:48:11;;;;;;;;;;;;;;;28.16;33.69;100954.77;84820;1328;22599;-74
2022/06/15 09:50:20;;;;;;;;;;;;;;;28.50;32.82;100951.46;84788;1327;22574;-74
2022/06/15 09:52:29;;;;;;;;;;;;;;;28.66;32.10;100952.59;84813;1326;22878;-74
2022/06/15 09:54:39;;;;;;;;;;;;;;;28.59;31.54;100950.30;84819;1324;22715;-74
2022/06/15 09:56:42;;;;;;;;;;;;;;;28.34;31.42;100956.91;84757;1327;22639;-74
2022/06/15 09:58:48;;;;;;;;;;;;;;;28.04;31.94;100956.20;84798;1329;22600;-74
2022/06/15 10:00:51;;;;;;;;;;;;;;;27.66;33.01;100959.34;84736;1330;22639;-74
2022/06/15 10:03:01;;;;;;;;;;;;;;;27.20;33.61;100958.58;84769;1327;22859;-74
2022/06/15 10:05:08;;;;;;;;;;;;;;;26.88;34.31;100959.36;84761;1324;22574;-73
2022/06/15 10:07:14;;;;;;;;;;;;;;;26.72;34.61;100959.66;84757;1330;22572;-74
2022/06/15 10:09:18;;;;;;;;;;;;;;;26.53;35.26;100962.73;84778;1324;23956;-74
2022/06/15 10:11:31;;;;;;;;;;;;;;;26.40;35.28;100968.39;84762;1326;22596;-74
2022/06/15 10:13:36;;;;;;;;;;;;;;;26.31;35.41;100966.23;84759;1326;25434;-74
2022/06/15 10:15:57;;;;;;;;;;;;;;;26.32;35.00;100966.13;84797;1327;22915;-74
2022/06/15 10:18:02;;;;;;;;;;;;;;;26.25;34.38;100965.23;84788;1327;22670;-73
2022/06/15 10:20:09;;;;;;;;;;;;;;;26.08;33.95;100962.54;84800;1324;22597;-74
2022/06/15 10:22:21;;;;;;;;;;;;;;;25.82;34.79;100964.46;84796;1330;22729;-74
2022/06/15 10:24:26;;;;;;;;;;;;;;;25.69;35.24;100965.58;84765;1327;22603;-74
2022/06/15 10:26:34;;;;;;;;;;;;;;;25.53;35.68;100963.65;84761;1327;25269;-74
2022/06/15 10:28:39;;;;;;;;;;;;;;;25.36;36.28;100964.00;84759;1326;25408;-74
2022/06/15 10:30:54;;;;;;;;;;;;;;;25.23;37.13;100964.61;84757;1326;22586;-74
2022/06/15 10:33:02;;;;;;;;;;;;;;;25.08;36.95;100966.13;84746;1328;24236;-75
2022/06/15 10:35:08;;;;;;;;;;;;;;;24.86;36.99;100963.27;84654;1330;22658;-75
2022/06/15 10:37:16;;;;;;;;;;;;;;;24.77;38.26;100967.15;84804;1327;24502;-74
2022/06/15 10:39:22;;;;;;;;;;;;;;;25.05;38.11;100959.61;84746;1326;22608;-74
2022/06/15 10:41:48;;;;;;;;;;;;;;;25.46;38.42;100952.36;84783;1326;22597;-74
2022/06/15 10:43:51;;;;;;;;;;;;;;;25.77;37.60;100950.02;84718;1326;22599;-74
2022/06/15 10:45:58;;;;;;;;;;;;;;;25.89;36.63;100954.16;84743;1324;22577;-74
2022/06/15 10:48:02;;;;;;;;;;;;;;;25.80;35.75;100956.90;84717;1326;22586;-74
2022/06/15 10:50:14;;;;;;;;;;;;;;;25.61;36.13;100956.69;84737;1326;25426;-74